Arietta A — A8TZ2 — position and weather

sailwx.info

Track history (hours):
 
Tides and Currents Weather Stations Pressure Air Temp Water Temp Dewpoint Dewpoint Depression Visibility Wind Speed Wind Dir Waves Ship Positions

Arietta A

Last reported at 2018-Jun-22 12:30 UTC. Time now 2018-Jun-24 22:06 UTC.
Position S 29°37' E 031°35'.

Length 189 m; draft 12 m.

Type: Cargo ship. MMSI: 636014460.

Date/timePositionNaut miles runAvg speedWind from/ knotsBaromVisibWave heightAir tempDewpointWater temp
2018-Jun-22 12:30S 29°37' E 031°35'713.0
2018-Jun-22 11:59S 29°43' E 031°31'612.5
2018-Jun-22 11:30S 29°48' E 031°27'611.1
2018-Jun-22 11:00S 29°52' E 031°23'510.7
2018-Jun-22 10:30S 29°57' E 031°20'510.7
2018-Jun-22 10:00S 30°01' E 031°16'611.1
2018-Jun-22 09:30S 30°06' E 031°13'  
2018-Jun-19 14:15S 34°46' E 018°36'511.1
2018-Jun-19 13:46S 34°44' E 018°30'310.6
2018-Jun-19 13:30S 34°42' E 018°27'1810.1
2018-Jun-19 11:44S 34°35' E 018°07'7 9.6
2018-Jun-19 11:03S 34°30' E 018°02'4 9.7
2018-Jun-19 10:37S 34°27' E 017°59'1 9.8
2018-Jun-19 10:30S 34°26' E 017°58'5 9.6
2018-Jun-19 10:00S 34°22' E 017°54'5 9.7
2018-Jun-19 09:30S 34°18' E 017°51'5 9.8
2018-Jun-19 09:00S 34°14' E 017°47'510.0
2018-Jun-19 08:30S 34°10' E 017°44'5 9.9
2018-Jun-19 07:59S 34°06' E 017°40'5 9.7
2018-Jun-19 07:30S 34°03' E 017°36'  
Track history (hours):
 
Tides and Currents Weather Stations Pressure Air Temp Water Temp Dewpoint Dewpoint Depression Visibility Wind Speed Wind Dir Waves Ship Positions

Arietta A

Last reported at 2018-Jun-22 12:30 UTC. Time now 2018-Jun-24 22:06 UTC.
Position S 29°37' E 031°35'.

Length 189 m; draft 12 m.

Type: Cargo ship. MMSI: 636014460.

Date/timePositionNaut miles runAvg speedWind from/ knotsBaromVisibWave heightAir tempDewpointWater temp
2018-Jun-22 12:30S 29°37' E 031°35'713.0
2018-Jun-22 11:59S 29°43' E 031°31'612.5
2018-Jun-22 11:30S 29°48' E 031°27'611.1
2018-Jun-22 11:00S 29°52' E 031°23'510.7
2018-Jun-22 10:30S 29°57' E 031°20'510.7
2018-Jun-22 10:00S 30°01' E 031°16'611.1
2018-Jun-22 09:30S 30°06' E 031°13'  
2018-Jun-19 14:15S 34°46' E 018°36'511.1
2018-Jun-19 13:46S 34°44' E 018°30'310.6
2018-Jun-19 13:30S 34°42' E 018°27'1810.1
2018-Jun-19 11:44S 34°35' E 018°07'7 9.6
2018-Jun-19 11:03S 34°30' E 018°02'4 9.7
2018-Jun-19 10:37S 34°27' E 017°59'1 9.8
2018-Jun-19 10:30S 34°26' E 017°58'5 9.6
2018-Jun-19 10:00S 34°22' E 017°54'5 9.7
2018-Jun-19 09:30S 34°18' E 017°51'5 9.8
2018-Jun-19 09:00S 34°14' E 017°47'510.0
2018-Jun-19 08:30S 34°10' E 017°44'5 9.9
2018-Jun-19 07:59S 34°06' E 017°40'5 9.7
2018-Jun-19 07:30S 34°03' E 017°36'  

Dump ship's entire track history